sensor_id;sensor_type;location;lat;lon;timestamp;P1;durP1;ratioP1;P2;durP2;ratioP2
69989;SDS011;57331;52.054;5.294;2023-02-26T00:01:20;13.80;;;4.53;;
69989;SDS011;57331;52.054;5.294;2023-02-26T00:03:49;11.43;;;3.38;;
69989;SDS011;57331;52.054;5.294;2023-02-26T00:06:18;10.18;;;3.30;;
69989;SDS011;57331;52.054;5.294;2023-02-26T00:08:45;9.67;;;3.10;;
69989;SDS011;57331;52.054;5.294;2023-02-26T00:11:12;15.30;;;3.05;;
69989;SDS011;57331;52.054;5.294;2023-02-26T00:13:41;9.35;;;2.85;;
69989;SDS011;57331;52.054;5.294;2023-02-26T00:16:23;9.75;;;2.88;;
69989;SDS011;57331;52.054;5.294;2023-02-26T00:18:52;13.68;;;2.83;;
69989;SDS011;57331;52.054;5.294;2023-02-26T00:21:20;7.67;;;2.60;;
69989;SDS011;57331;52.054;5.294;2023-02-26T00:23:49;11.00;;;3.10;;
69989;SDS011;57331;52.054;5.294;2023-02-26T00:26:16;8.15;;;3.15;;
69989;SDS011;57331;52.054;5.294;2023-02-26T00:28:43;8.40;;;2.53;;
69989;SDS011;57331;52.054;5.294;2023-02-26T00:31:12;12.35;;;2.83;;
69989;SDS011;57331;52.054;5.294;2023-02-26T00:33:41;6.70;;;2.30;;
69989;SDS011;57331;52.054;5.294;2023-02-26T00:38:44;7.72;;;2.40;;
69989;SDS011;57331;52.054;5.294;2023-02-26T00:41:18;7.95;;;2.03;;
69989;SDS011;57331;52.054;5.294;2023-02-26T00:43:45;3.55;;;1.65;;
69989;SDS011;57331;52.054;5.294;2023-02-26T00:51:24;9.55;;;1.85;;
69989;SDS011;57331;52.054;5.294;2023-02-26T00:54:04;7.93;;;1.90;;
69989;SDS011;57331;52.054;5.294;2023-02-26T00:56:40;9.88;;;1.70;;
69989;SDS011;57331;52.054;5.294;2023-02-26T00:59:08;6.20;;;1.60;;
69989;SDS011;57331;52.054;5.294;2023-02-26T01:01:36;6.05;;;1.58;;
69989;SDS011;57331;52.054;5.294;2023-02-26T01:04:03;6.35;;;1.50;;
69989;SDS011;57331;52.054;5.294;2023-02-26T01:06:31;4.43;;;1.27;;
69989;SDS011;57331;52.054;5.294;2023-02-26T01:11:33;6.23;;;1.30;;
69989;SDS011;57331;52.054;5.294;2023-02-26T01:14:02;13.10;;;1.92;;
69989;SDS011;57331;52.054;5.294;2023-02-26T01:16:32;9.70;;;1.60;;
69989;SDS011;57331;52.054;5.294;2023-02-26T01:19:45;7.40;;;1.58;;
69989;SDS011;57331;52.054;5.294;2023-02-26T01:22:11;4.95;;;1.40;;
69989;SDS011;57331;52.054;5.294;2023-02-26T01:24:40;5.83;;;1.40;;
69989;SDS011;57331;52.054;5.294;2023-02-26T01:27:08;5.13;;;1.35;;
69989;SDS011;57331;52.054;5.294;2023-02-26T01:29:35;5.40;;;1.70;;
69989;SDS011;57331;52.054;5.294;2023-02-26T01:39:43;9.90;;;1.67;;
69989;SDS011;57331;52.054;5.294;2023-02-26T01:44:47;4.55;;;1.27;;
69989;SDS011;57331;52.054;5.294;2023-02-26T01:49:52;4.77;;;1.20;;
69989;SDS011;57331;52.054;5.294;2023-02-26T01:55:16;5.28;;;1.40;;
69989;SDS011;57331;52.054;5.294;2023-02-26T01:57:48;8.50;;;1.58;;
69989;SDS011;57331;52.054;5.294;2023-02-26T02:00:20;5.40;;;1.38;;
69989;SDS011;57331;52.054;5.294;2023-02-26T02:02:48;6.40;;;1.10;;
69989;SDS011;57331;52.054;5.294;2023-02-26T02:05:18;6.55;;;1.35;;
69989;SDS011;57331;52.054;5.294;2023-02-26T02:07:47;8.20;;;1.77;;
69989;SDS011;57331;52.054;5.294;2023-02-26T02:10:15;8.32;;;1.38;;
69989;SDS011;57331;52.054;5.294;2023-02-26T02:20:19;7.22;;;1.45;;
69989;SDS011;57331;52.054;5.294;2023-02-26T02:34:45;9.25;;;1.20;;
69989;SDS011;57331;52.054;5.294;2023-02-26T02:37:28;4.72;;;1.30;;
69989;SDS011;57331;52.054;5.294;2023-02-26T02:40:17;11.45;;;1.55;;
69989;SDS011;57331;52.054;5.294;2023-02-26T02:42:46;6.17;;;1.37;;
69989;SDS011;57331;52.054;5.294;2023-02-26T02:45:26;3.00;;;1.15;;
69989;SDS011;57331;52.054;5.294;2023-02-26T02:47:57;6.53;;;1.30;;
69989;SDS011;57331;52.054;5.294;2023-02-26T02:50:47;4.35;;;1.20;;
69989;SDS011;57331;52.054;5.294;2023-02-26T02:53:18;7.95;;;1.50;;
69989;SDS011;57331;52.054;5.294;2023-02-26T02:55:49;11.37;;;1.30;;
69989;SDS011;57331;52.054;5.294;2023-02-26T02:58:21;3.72;;;1.10;;
69989;SDS011;57331;52.054;5.294;2023-02-26T03:00:53;7.97;;;1.70;;
69989;SDS011;57331;52.054;5.294;2023-02-26T03:03:27;3.35;;;1.15;;
69989;SDS011;57331;52.054;5.294;2023-02-26T03:05:57;3.83;;;1.25;;
69989;SDS011;57331;52.054;5.294;2023-02-26T03:08:26;5.27;;;1.13;;
69989;SDS011;57331;52.054;5.294;2023-02-26T03:10:54;9.77;;;1.20;;
69989;SDS011;57331;52.054;5.294;2023-02-26T03:13:22;3.28;;;1.20;;
69989;SDS011;57331;52.054;5.294;2023-02-26T03:16:04;6.07;;;1.20;;
69989;SDS011;57331;52.054;5.294;2023-02-26T03:21:28;11.53;;;1.50;;
69989;SDS011;57331;52.054;5.294;2023-02-26T03:24:03;9.55;;;1.17;;
69989;SDS011;57331;52.054;5.294;2023-02-26T03:27:08;5.03;;;1.20;;
69989;SDS011;57331;52.054;5.294;2023-02-26T03:29:57;6.10;;;1.13;;
69989;SDS011;57331;52.054;5.294;2023-02-26T03:32:16;2.47;;;0.93;;
69989;SDS011;57331;52.054;5.294;2023-02-26T03:34:50;10.47;;;1.43;;
69989;SDS011;57331;52.054;5.294;2023-02-26T03:37:25;11.82;;;1.20;;
69989;SDS011;57331;52.054;5.294;2023-02-26T03:39:56;5.57;;;1.17;;
69989;SDS011;57331;52.054;5.294;2023-02-26T03:42:35;8.15;;;1.25;;
69989;SDS011;57331;52.054;5.294;2023-02-26T03:45:09;5.82;;;1.13;;
69989;SDS011;57331;52.054;5.294;2023-02-26T03:47:38;5.13;;;0.83;;
69989;SDS011;57331;52.054;5.294;2023-02-26T03:50:10;4.32;;;1.10;;
69989;SDS011;57331;52.054;5.294;2023-02-26T03:52:47;3.13;;;1.00;;
69989;SDS011;57331;52.054;5.294;2023-02-26T03:55:41;5.22;;;1.20;;
69989;SDS011;57331;52.054;5.294;2023-02-26T03:58:29;5.05;;;0.90;;
69989;SDS011;57331;52.054;5.294;2023-02-26T04:01:19;2.00;;;0.73;;
69989;SDS011;57331;52.054;5.294;2023-02-26T04:03:49;3.28;;;1.17;;
69989;SDS011;57331;52.054;5.294;2023-02-26T04:06:20;2.97;;;0.98;;
69989;SDS011;57331;52.054;5.294;2023-02-26T04:08:48;7.30;;;1.25;;
69989;SDS011;57331;52.054;5.294;2023-02-26T04:11:20;4.90;;;1.10;;
69989;SDS011;57331;52.054;5.294;2023-02-26T04:13:47;10.07;;;1.17;;
69989;SDS011;57331;52.054;5.294;2023-02-26T04:16:17;5.20;;;1.00;;
69989;SDS011;57331;52.054;5.294;2023-02-26T04:18:44;6.97;;;1.30;;
69989;SDS011;57331;52.054;5.294;2023-02-26T04:21:12;7.40;;;1.13;;
69989;SDS011;57331;52.054;5.294;2023-02-26T04:23:41;4.45;;;1.25;;
69989;SDS011;57331;52.054;5.294;2023-02-26T04:26:08;2.63;;;0.90;;
69989;SDS011;57331;52.054;5.294;2023-02-26T04:28:38;4.72;;;0.90;;
69989;SDS011;57331;52.054;5.294;2023-02-26T04:31:06;2.05;;;0.80;;
69989;SDS011;57331;52.054;5.294;2023-02-26T04:33:35;4.70;;;1.00;;
69989;SDS011;57331;52.054;5.294;2023-02-26T04:36:02;3.40;;;1.13;;
69989;SDS011;57331;52.054;5.294;2023-02-26T04:38:30;5.47;;;1.07;;
69989;SDS011;57331;52.054;5.294;2023-02-26T04:40:58;5.30;;;1.05;;
69989;SDS011;57331;52.054;5.294;2023-02-26T04:43:25;2.40;;;0.90;;
69989;SDS011;57331;52.054;5.294;2023-02-26T04:46:09;4.20;;;0.85;;
69989;SDS011;57331;52.054;5.294;2023-02-26T04:48:36;3.63;;;1.05;;
69989;SDS011;57331;52.054;5.294;2023-02-26T04:51:03;3.33;;;1.03;;
69989;SDS011;57331;52.054;5.294;2023-02-26T04:53:32;4.05;;;1.17;;
69989;SDS011;57331;52.054;5.294;2023-02-26T04:55:59;5.80;;;0.90;;
69989;SDS011;57331;52.054;5.294;2023-02-26T04:58:27;9.30;;;1.00;;
69989;SDS011;57331;52.054;5.294;2023-02-26T05:01:01;5.28;;;1.23;;
69989;SDS011;57331;52.054;5.294;2023-02-26T05:03:29;5.97;;;0.93;;
69989;SDS011;57331;52.054;5.294;2023-02-26T05:05:58;9.10;;;1.88;;
69989;SDS011;57331;52.054;5.294;2023-02-26T05:08:25;3.40;;;1.33;;
69989;SDS011;57331;52.054;5.294;2023-02-26T05:10:52;4.22;;;0.88;;
69989;SDS011;57331;52.054;5.294;2023-02-26T05:13:19;4.03;;;1.00;;
69989;SDS011;57331;52.054;5.294;2023-02-26T05:15:47;2.67;;;1.17;;
69989;SDS011;57331;52.054;5.294;2023-02-26T05:18:14;11.00;;;1.25;;
69989;SDS011;57331;52.054;5.294;2023-02-26T05:20:42;5.93;;;1.23;;
69989;SDS011;57331;52.054;5.294;2023-02-26T05:23:09;6.25;;;1.00;;
69989;SDS011;57331;52.054;5.294;2023-02-26T05:25:37;3.67;;;1.20;;
69989;SDS011;57331;52.054;5.294;2023-02-26T05:28:05;6.13;;;1.30;;
69989;SDS011;57331;52.054;5.294;2023-02-26T05:30:32;5.90;;;1.00;;
69989;SDS011;57331;52.054;5.294;2023-02-26T05:33:00;3.63;;;0.82;;
69989;SDS011;57331;52.054;5.294;2023-02-26T05:35:27;5.22;;;1.10;;
69989;SDS011;57331;52.054;5.294;2023-02-26T05:37:54;5.35;;;1.17;;
69989;SDS011;57331;52.054;5.294;2023-02-26T05:40:21;6.67;;;1.03;;
69989;SDS011;57331;52.054;5.294;2023-02-26T05:42:49;3.78;;;1.15;;
69989;SDS011;57331;52.054;5.294;2023-02-26T05:45:17;4.38;;;1.20;;
69989;SDS011;57331;52.054;5.294;2023-02-26T05:47:44;3.08;;;1.00;;
69989;SDS011;57331;52.054;5.294;2023-02-26T05:50:11;2.88;;;0.88;;
69989;SDS011;57331;52.054;5.294;2023-02-26T05:52:39;3.73;;;1.10;;
69989;SDS011;57331;52.054;5.294;2023-02-26T05:55:06;6.05;;;1.00;;
69989;SDS011;57331;52.054;5.294;2023-02-26T05:57:34;4.95;;;1.15;;
69989;SDS011;57331;52.054;5.294;2023-02-26T06:00:01;5.50;;;1.58;;
69989;SDS011;57331;52.054;5.294;2023-02-26T06:02:37;5.35;;;1.20;;
69989;SDS011;57331;52.054;5.294;2023-02-26T06:05:05;3.53;;;1.17;;
69989;SDS011;57331;52.054;5.294;2023-02-26T06:07:33;3.03;;;1.00;;
69989;SDS011;57331;52.054;5.294;2023-02-26T06:10:00;6.55;;;1.20;;
69989;SDS011;57331;52.054;5.294;2023-02-26T06:12:27;1.88;;;0.80;;
69989;SDS011;57331;52.054;5.294;2023-02-26T06:14:54;7.30;;;1.70;;
69989;SDS011;57331;52.054;5.294;2023-02-26T06:17:22;2.72;;;0.88;;
69989;SDS011;57331;52.054;5.294;2023-02-26T06:19:49;2.38;;;0.98;;
69989;SDS011;57331;52.054;5.294;2023-02-26T06:22:17;4.78;;;1.40;;
69989;SDS011;57331;52.054;5.294;2023-02-26T06:24:44;3.88;;;1.20;;
69989;SDS011;57331;52.054;5.294;2023-02-26T06:27:11;4.33;;;1.30;;
69989;SDS011;57331;52.054;5.294;2023-02-26T06:29:39;4.63;;;0.95;;
69989;SDS011;57331;52.054;5.294;2023-02-26T06:32:06;5.80;;;1.33;;
69989;SDS011;57331;52.054;5.294;2023-02-26T06:34:34;6.63;;;1.60;;
69989;SDS011;57331;52.054;5.294;2023-02-26T06:37:01;5.43;;;1.80;;
69989;SDS011;57331;52.054;5.294;2023-02-26T06:39:28;8.17;;;1.87;;
69989;SDS011;57331;52.054;5.294;2023-02-26T06:41:56;9.98;;;1.58;;
69989;SDS011;57331;52.054;5.294;2023-02-26T06:44:23;4.47;;;1.30;;
69989;SDS011;57331;52.054;5.294;2023-02-26T06:46:50;5.80;;;1.70;;
69989;SDS011;57331;52.054;5.294;2023-02-26T06:49:18;6.45;;;1.23;;
69989;SDS011;57331;52.054;5.294;2023-02-26T06:51:45;3.80;;;1.30;;
69989;SDS011;57331;52.054;5.294;2023-02-26T06:54:12;8.95;;;1.50;;
69989;SDS011;57331;52.054;5.294;2023-02-26T06:56:40;8.88;;;2.00;;
69989;SDS011;57331;52.054;5.294;2023-02-26T06:59:07;6.47;;;1.77;;
69989;SDS011;57331;52.054;5.294;2023-02-26T07:01:34;9.10;;;1.60;;
69989;SDS011;57331;52.054;5.294;2023-02-26T07:04:01;5.70;;;1.73;;
69989;SDS011;57331;52.054;5.294;2023-02-26T07:06:29;5.53;;;1.55;;
69989;SDS011;57331;52.054;5.294;2023-02-26T07:08:56;9.65;;;1.30;;
69989;SDS011;57331;52.054;5.294;2023-02-26T07:11:23;5.22;;;1.40;;
69989;SDS011;57331;52.054;5.294;2023-02-26T07:13:51;9.00;;;2.80;;
69989;SDS011;57331;52.054;5.294;2023-02-26T07:16:18;11.07;;;2.83;;
69989;SDS011;57331;52.054;5.294;2023-02-26T07:18:46;6.28;;;1.08;;
69989;SDS011;57331;52.054;5.294;2023-02-26T07:21:13;2.97;;;0.95;;
69989;SDS011;57331;52.054;5.294;2023-02-26T07:23:40;2.83;;;1.00;;
69989;SDS011;57331;52.054;5.294;2023-02-26T07:26:07;2.47;;;1.10;;
69989;SDS011;57331;52.054;5.294;2023-02-26T07:28:35;3.70;;;1.08;;
69989;SDS011;57331;52.054;5.294;2023-02-26T07:31:02;6.88;;;1.30;;
69989;SDS011;57331;52.054;5.294;2023-02-26T07:33:29;10.63;;;3.28;;
69989;SDS011;57331;52.054;5.294;2023-02-26T07:35:57;6.00;;;1.77;;
69989;SDS011;57331;52.054;5.294;2023-02-26T07:38:24;3.50;;;1.30;;
69989;SDS011;57331;52.054;5.294;2023-02-26T07:40:55;2.90;;;1.20;;
69989;SDS011;57331;52.054;5.294;2023-02-26T07:43:25;5.40;;;0.98;;
69989;SDS011;57331;52.054;5.294;2023-02-26T07:45:52;2.25;;;0.90;;
69989;SDS011;57331;52.054;5.294;2023-02-26T07:48:20;8.53;;;1.20;;
69989;SDS011;57331;52.054;5.294;2023-02-26T07:50:49;5.70;;;1.42;;
69989;SDS011;57331;52.054;5.294;2023-02-26T07:53:17;3.35;;;1.00;;
69989;SDS011;57331;52.054;5.294;2023-02-26T07:55:44;9.27;;;1.30;;
69989;SDS011;57331;52.054;5.294;2023-02-26T07:58:11;7.60;;;1.40;;
69989;SDS011;57331;52.054;5.294;2023-02-26T08:00:39;7.27;;;2.00;;
69989;SDS011;57331;52.054;5.294;2023-02-26T08:03:06;7.70;;;1.52;;
69989;SDS011;57331;52.054;5.294;2023-02-26T08:05:33;7.68;;;1.17;;
69989;SDS011;57331;52.054;5.294;2023-02-26T08:08:01;6.43;;;1.27;;
69989;SDS011;57331;52.054;5.294;2023-02-26T08:10:28;6.88;;;1.35;;
69989;SDS011;57331;52.054;5.294;2023-02-26T08:12:56;5.20;;;1.00;;
69989;SDS011;57331;52.054;5.294;2023-02-26T08:15:23;4.20;;;1.10;;
69989;SDS011;57331;52.054;5.294;2023-02-26T08:17:51;3.60;;;1.15;;
69989;SDS011;57331;52.054;5.294;2023-02-26T08:20:18;4.70;;;1.02;;
69989;SDS011;57331;52.054;5.294;2023-02-26T08:22:46;5.43;;;1.30;;
69989;SDS011;57331;52.054;5.294;2023-02-26T08:25:13;5.83;;;1.13;;
69989;SDS011;57331;52.054;5.294;2023-02-26T08:27:40;2.08;;;0.98;;
69989;SDS011;57331;52.054;5.294;2023-02-26T08:30:08;10.80;;;1.48;;
69989;SDS011;57331;52.054;5.294;2023-02-26T08:32:36;3.88;;;1.15;;
69989;SDS011;57331;52.054;5.294;2023-02-26T08:35:05;7.45;;;1.10;;
69989;SDS011;57331;52.054;5.294;2023-02-26T08:37:32;4.90;;;1.20;;
69989;SDS011;57331;52.054;5.294;2023-02-26T08:39:59;2.55;;;1.00;;
69989;SDS011;57331;52.054;5.294;2023-02-26T08:42:27;2.95;;;1.30;;
69989;SDS011;57331;52.054;5.294;2023-02-26T08:44:54;7.63;;;1.63;;
69989;SDS011;57331;52.054;5.294;2023-02-26T08:47:21;5.50;;;1.25;;
69989;SDS011;57331;52.054;5.294;2023-02-26T08:49:54;6.87;;;1.53;;
69989;SDS011;57331;52.054;5.294;2023-02-26T08:52:22;4.47;;;1.00;;
69989;SDS011;57331;52.054;5.294;2023-02-26T08:54:49;6.18;;;1.70;;
69989;SDS011;57331;52.054;5.294;2023-02-26T08:57:16;10.57;;;2.25;;
69989;SDS011;57331;52.054;5.294;2023-02-26T08:59:44;5.95;;;1.10;;
69989;SDS011;57331;52.054;5.294;2023-02-26T09:02:11;7.30;;;1.63;;
69989;SDS011;57331;52.054;5.294;2023-02-26T09:04:39;7.88;;;1.50;;
69989;SDS011;57331;52.054;5.294;2023-02-26T09:07:06;8.88;;;2.50;;
69989;SDS011;57331;52.054;5.294;2023-02-26T09:09:33;2.40;;;1.10;;
69989;SDS011;57331;52.054;5.294;2023-02-26T09:12:00;3.25;;;1.25;;
69989;SDS011;57331;52.054;5.294;2023-02-26T09:14:28;3.07;;;1.10;;
69989;SDS011;57331;52.054;5.294;2023-02-26T09:16:55;2.15;;;1.00;;
69989;SDS011;57331;52.054;5.294;2023-02-26T09:19:22;4.63;;;1.15;;
69989;SDS011;57331;52.054;5.294;2023-02-26T09:21:49;3.22;;;1.27;;
69989;SDS011;57331;52.054;5.294;2023-02-26T09:24:17;5.20;;;1.80;;
69989;SDS011;57331;52.054;5.294;2023-02-26T09:26:44;2.83;;;1.20;;
69989;SDS011;57331;52.054;5.294;2023-02-26T09:29:11;3.40;;;1.10;;
69989;SDS011;57331;52.054;5.294;2023-02-26T09:31:39;4.47;;;1.50;;
69989;SDS011;57331;52.054;5.294;2023-02-26T09:34:07;7.30;;;1.42;;
69989;SDS011;57331;52.054;5.294;2023-02-26T09:36:36;7.35;;;1.50;;
69989;SDS011;57331;52.054;5.294;2023-02-26T09:39:04;4.60;;;1.60;;
69989;SDS011;57331;52.054;5.294;2023-02-26T09:41:33;4.10;;;1.35;;
69989;SDS011;57331;52.054;5.294;2023-02-26T09:44:32;4.65;;;1.55;;
69989;SDS011;57331;52.054;5.294;2023-02-26T09:47:12;6.95;;;1.20;;
69989;SDS011;57331;52.054;5.294;2023-02-26T09:52:34;3.53;;;1.40;;
69989;SDS011;57331;52.054;5.294;2023-02-26T09:55:05;4.40;;;1.30;;
69989;SDS011;57331;52.054;5.294;2023-02-26T09:57:42;5.05;;;1.70;;
69989;SDS011;57331;52.054;5.294;2023-02-26T10:02:54;4.55;;;1.88;;
69989;SDS011;57331;52.054;5.294;2023-02-26T10:05:35;3.43;;;1.53;;
69989;SDS011;57331;52.054;5.294;2023-02-26T10:08:13;4.90;;;1.40;;
69989;SDS011;57331;52.054;5.294;2023-02-26T10:13:42;4.60;;;1.23;;
69989;SDS011;57331;52.054;5.294;2023-02-26T10:16:25;5.07;;;1.80;;
69989;SDS011;57331;52.054;5.294;2023-02-26T10:18:56;7.60;;;2.33;;
69989;SDS011;57331;52.054;5.294;2023-02-26T10:21:40;7.03;;;1.77;;
69989;SDS011;57331;52.054;5.294;2023-02-26T10:24:18;4.05;;;1.15;;
69989;SDS011;57331;52.054;5.294;2023-02-26T10:26:54;4.63;;;1.67;;
69989;SDS011;57331;52.054;5.294;2023-02-26T10:29:30;5.28;;;1.50;;
69989;SDS011;57331;52.054;5.294;2023-02-26T10:35:02;3.95;;;1.35;;
69989;SDS011;57331;52.054;5.294;2023-02-26T10:43:11;4.45;;;1.40;;
69989;SDS011;57331;52.054;5.294;2023-02-26T10:51:53;5.25;;;1.40;;
69989;SDS011;57331;52.054;5.294;2023-02-26T10:56:54;6.10;;;1.85;;
69989;SDS011;57331;52.054;5.294;2023-02-26T10:59:22;7.23;;;2.67;;
69989;SDS011;57331;52.054;5.294;2023-02-26T11:01:50;8.23;;;2.50;;
69989;SDS011;57331;52.054;5.294;2023-02-26T11:04:18;8.65;;;3.03;;
69989;SDS011;57331;52.054;5.294;2023-02-26T11:06:51;6.78;;;3.20;;
69989;SDS011;57331;52.054;5.294;2023-02-26T11:12:11;3.10;;;1.57;;
69989;SDS011;57331;52.054;5.294;2023-02-26T11:14:44;3.33;;;1.63;;
69989;SDS011;57331;52.054;5.294;2023-02-26T11:17:13;3.45;;;1.52;;
69989;SDS011;57331;52.054;5.294;2023-02-26T11:19:48;3.95;;;1.58;;
69989;SDS011;57331;52.054;5.294;2023-02-26T11:22:23;6.15;;;2.17;;
69989;SDS011;57331;52.054;5.294;2023-02-26T11:24:52;8.67;;;2.70;;
69989;SDS011;57331;52.054;5.294;2023-02-26T11:27:21;7.45;;;2.17;;
69989;SDS011;57331;52.054;5.294;2023-02-26T11:29:57;3.70;;;1.77;;
69989;SDS011;57331;52.054;5.294;2023-02-26T11:32:30;4.03;;;1.40;;
69989;SDS011;57331;52.054;5.294;2023-02-26T11:35:02;3.25;;;1.80;;
69989;SDS011;57331;52.054;5.294;2023-02-26T11:37:37;3.37;;;1.90;;
69989;SDS011;57331;52.054;5.294;2023-02-26T11:40:16;5.45;;;2.20;;
69989;SDS011;57331;52.054;5.294;2023-02-26T11:42:55;8.55;;;2.20;;
69989;SDS011;57331;52.054;5.294;2023-02-26T11:45:25;7.55;;;2.30;;
69989;SDS011;57331;52.054;5.294;2023-02-26T11:47:57;5.57;;;2.60;;
69989;SDS011;57331;52.054;5.294;2023-02-26T11:50:28;8.20;;;1.83;;
69989;SDS011;57331;52.054;5.294;2023-02-26T11:53:03;4.78;;;1.80;;
69989;SDS011;57331;52.054;5.294;2023-02-26T11:55:35;5.68;;;2.38;;
69989;SDS011;57331;52.054;5.294;2023-02-26T11:58:13;4.53;;;2.10;;
69989;SDS011;57331;52.054;5.294;2023-02-26T12:00:43;6.40;;;2.45;;
69989;SDS011;57331;52.054;5.294;2023-02-26T12:03:31;6.00;;;2.20;;
69989;SDS011;57331;52.054;5.294;2023-02-26T12:06:00;6.60;;;2.30;;
69989;SDS011;57331;52.054;5.294;2023-02-26T12:34:02;6.68;;;2.20;;
69989;SDS011;57331;52.054;5.294;2023-02-26T12:42:57;5.72;;;2.30;;
69989;SDS011;57331;52.054;5.294;2023-02-26T13:00:02;6.65;;;2.63;;
69989;SDS011;57331;52.054;5.294;2023-02-26T13:06:13;4.63;;;2.20;;
69989;SDS011;57331;52.054;5.294;2023-02-26T13:11:58;10.05;;;3.28;;
69989;SDS011;57331;52.054;5.294;2023-02-26T13:20:19;8.45;;;2.80;;
69989;SDS011;57331;52.054;5.294;2023-02-26T13:25:50;6.28;;;3.08;;
69989;SDS011;57331;52.054;5.294;2023-02-26T13:31:15;5.53;;;2.70;;
69989;SDS011;57331;52.054;5.294;2023-02-26T13:33:47;6.35;;;2.70;;
69989;SDS011;57331;52.054;5.294;2023-02-26T13:36:16;4.78;;;2.10;;
69989;SDS011;57331;52.054;5.294;2023-02-26T13:38:52;5.68;;;2.28;;
69989;SDS011;57331;52.054;5.294;2023-02-26T13:41:48;5.93;;;2.10;;
69989;SDS011;57331;52.054;5.294;2023-02-26T13:55:50;4.20;;;2.28;;
69989;SDS011;57331;52.054;5.294;2023-02-26T14:00:59;6.20;;;2.35;;
69989;SDS011;57331;52.054;5.294;2023-02-26T14:09:43;7.35;;;3.65;;
69989;SDS011;57331;52.054;5.294;2023-02-26T14:12:34;4.20;;;2.17;;
69989;SDS011;57331;52.054;5.294;2023-02-26T14:15:16;11.38;;;4.13;;
69989;SDS011;57331;52.054;5.294;2023-02-26T14:17:49;5.40;;;3.00;;
69989;SDS011;57331;52.054;5.294;2023-02-26T14:20:19;6.45;;;3.42;;
69989;SDS011;57331;52.054;5.294;2023-02-26T14:23:12;7.20;;;3.28;;
69989;SDS011;57331;52.054;5.294;2023-02-26T14:25:50;7.00;;;3.80;;
69989;SDS011;57331;52.054;5.294;2023-02-26T14:30:58;13.88;;;7.90;;
69989;SDS011;57331;52.054;5.294;2023-02-26T14:33:59;7.20;;;3.70;;
69989;SDS011;57331;52.054;5.294;2023-02-26T14:36:53;6.65;;;3.17;;
69989;SDS011;57331;52.054;5.294;2023-02-26T14:39:44;5.63;;;3.10;;
69989;SDS011;57331;52.054;5.294;2023-02-26T14:42:19;5.55;;;2.63;;
69989;SDS011;57331;52.054;5.294;2023-02-26T14:45:28;4.15;;;2.25;;
69989;SDS011;57331;52.054;5.294;2023-02-26T14:48:03;5.63;;;2.13;;
69989;SDS011;57331;52.054;5.294;2023-02-26T14:58:52;7.85;;;3.90;;
69989;SDS011;57331;52.054;5.294;2023-02-26T15:01:43;5.10;;;2.30;;
69989;SDS011;57331;52.054;5.294;2023-02-26T15:04:35;5.97;;;2.05;;
69989;SDS011;57331;52.054;5.294;2023-02-26T15:10:38;4.28;;;2.25;;
69989;SDS011;57331;52.054;5.294;2023-02-26T15:17:04;4.82;;;2.30;;
69989;SDS011;57331;52.054;5.294;2023-02-26T15:24:27;5.55;;;3.42;;
69989;SDS011;57331;52.054;5.294;2023-02-26T15:26:59;5.80;;;2.30;;
69989;SDS011;57331;52.054;5.294;2023-02-26T15:29:29;11.88;;;3.88;;
69989;SDS011;57331;52.054;5.294;2023-02-26T15:32:04;6.55;;;1.90;;
69989;SDS011;57331;52.054;5.294;2023-02-26T15:34:44;4.33;;;1.70;;
69989;SDS011;57331;52.054;5.294;2023-02-26T15:37:23;4.78;;;1.75;;
69989;SDS011;57331;52.054;5.294;2023-02-26T15:39:55;3.75;;;1.90;;
69989;SDS011;57331;52.054;5.294;2023-02-26T15:42:24;15.52;;;5.30;;
69989;SDS011;57331;52.054;5.294;2023-02-26T15:44:56;4.78;;;1.90;;
69989;SDS011;57331;52.054;5.294;2023-02-26T15:47:27;4.57;;;1.90;;
69989;SDS011;57331;52.054;5.294;2023-02-26T15:49:55;9.25;;;2.05;;
69989;SDS011;57331;52.054;5.294;2023-02-26T15:52:24;4.72;;;1.70;;
69989;SDS011;57331;52.054;5.294;2023-02-26T15:57:19;5.63;;;1.90;;
69989;SDS011;57331;52.054;5.294;2023-02-26T15:59:50;5.43;;;2.20;;
69989;SDS011;57331;52.054;5.294;2023-02-26T16:02:20;5.93;;;2.08;;
69989;SDS011;57331;52.054;5.294;2023-02-26T16:04:51;9.68;;;2.30;;
69989;SDS011;57331;52.054;5.294;2023-02-26T16:07:19;4.50;;;1.90;;
69989;SDS011;57331;52.054;5.294;2023-02-26T16:09:48;7.03;;;2.60;;
69989;SDS011;57331;52.054;5.294;2023-02-26T16:12:34;7.07;;;1.92;;
69989;SDS011;57331;52.054;5.294;2023-02-26T16:15:13;7.55;;;2.40;;
69989;SDS011;57331;52.054;5.294;2023-02-26T16:17:48;7.57;;;3.65;;
69989;SDS011;57331;52.054;5.294;2023-02-26T16:20:19;9.98;;;3.45;;
69989;SDS011;57331;52.054;5.294;2023-02-26T16:22:48;7.30;;;2.70;;
69989;SDS011;57331;52.054;5.294;2023-02-26T16:25:42;5.93;;;2.60;;
69989;SDS011;57331;52.054;5.294;2023-02-26T16:28:23;6.20;;;3.00;;
69989;SDS011;57331;52.054;5.294;2023-02-26T16:30:58;5.20;;;2.03;;
69989;SDS011;57331;52.054;5.294;2023-02-26T16:33:30;6.18;;;2.00;;
69989;SDS011;57331;52.054;5.294;2023-02-26T16:36:11;4.03;;;1.80;;
69989;SDS011;57331;52.054;5.294;2023-02-26T16:38:48;5.60;;;2.20;;
69989;SDS011;57331;52.054;5.294;2023-02-26T16:41:22;6.07;;;1.60;;
69989;SDS011;57331;52.054;5.294;2023-02-26T16:43:55;20.30;;;7.03;;
69989;SDS011;57331;52.054;5.294;2023-02-26T16:51:28;6.55;;;2.25;;
69989;SDS011;57331;52.054;5.294;2023-02-26T16:53:58;4.07;;;1.80;;
69989;SDS011;57331;52.054;5.294;2023-02-26T16:56:37;9.70;;;2.17;;
69989;SDS011;57331;52.054;5.294;2023-02-26T17:01:42;6.33;;;2.03;;
69989;SDS011;57331;52.054;5.294;2023-02-26T17:04:38;4.90;;;2.10;;
69989;SDS011;57331;52.054;5.294;2023-02-26T17:09:56;7.90;;;1.98;;
69989;SDS011;57331;52.054;5.294;2023-02-26T17:12:37;12.15;;;3.85;;
69989;SDS011;57331;52.054;5.294;2023-02-26T17:15:20;13.30;;;5.13;;
69989;SDS011;57331;52.054;5.294;2023-02-26T17:17:56;9.52;;;3.58;;
69989;SDS011;57331;52.054;5.294;2023-02-26T17:20:24;9.18;;;2.92;;
69989;SDS011;57331;52.054;5.294;2023-02-26T17:22:53;13.73;;;3.50;;
69989;SDS011;57331;52.054;5.294;2023-02-26T17:25:21;14.70;;;5.38;;
69989;SDS011;57331;52.054;5.294;2023-02-26T17:27:50;12.07;;;4.00;;
69989;SDS011;57331;52.054;5.294;2023-02-26T17:30:18;12.00;;;3.20;;
69989;SDS011;57331;52.054;5.294;2023-02-26T17:32:47;6.70;;;2.40;;
69989;SDS011;57331;52.054;5.294;2023-02-26T17:35:15;8.95;;;2.30;;
69989;SDS011;57331;52.054;5.294;2023-02-26T17:37:44;17.35;;;6.07;;
69989;SDS011;57331;52.054;5.294;2023-02-26T17:40:15;20.37;;;8.87;;
69989;SDS011;57331;52.054;5.294;2023-02-26T17:42:53;13.32;;;3.75;;
69989;SDS011;57331;52.054;5.294;2023-02-26T17:45:20;14.20;;;3.58;;
69989;SDS011;57331;52.054;5.294;2023-02-26T17:47:48;22.30;;;7.47;;
69989;SDS011;57331;52.054;5.294;2023-02-26T17:50:58;13.68;;;4.57;;
69989;SDS011;57331;52.054;5.294;2023-02-26T17:53:20;7.00;;;2.70;;
69989;SDS011;57331;52.054;5.294;2023-02-26T17:55:49;8.52;;;2.60;;
69989;SDS011;57331;52.054;5.294;2023-02-26T17:58:29;7.30;;;2.33;;
69989;SDS011;57331;52.054;5.294;2023-02-26T18:00:59;8.75;;;2.65;;
69989;SDS011;57331;52.054;5.294;2023-02-26T18:03:27;6.22;;;2.50;;
69989;SDS011;57331;52.054;5.294;2023-02-26T18:05:55;6.77;;;2.80;;
69989;SDS011;57331;52.054;5.294;2023-02-26T18:08:30;14.43;;;2.75;;
69989;SDS011;57331;52.054;5.294;2023-02-26T18:11:00;7.97;;;2.58;;
69989;SDS011;57331;52.054;5.294;2023-02-26T18:13:29;9.63;;;3.30;;
69989;SDS011;57331;52.054;5.294;2023-02-26T18:15:56;7.60;;;2.75;;
69989;SDS011;57331;52.054;5.294;2023-02-26T18:18:24;7.80;;;3.03;;
69989;SDS011;57331;52.054;5.294;2023-02-26T18:20:52;18.15;;;8.52;;
69989;SDS011;57331;52.054;5.294;2023-02-26T18:23:19;16.35;;;6.13;;
69989;SDS011;57331;52.054;5.294;2023-02-26T18:25:47;8.52;;;3.70;;
69989;SDS011;57331;52.054;5.294;2023-02-26T18:28:20;17.40;;;5.07;;
69989;SDS011;57331;52.054;5.294;2023-02-26T18:30:49;9.77;;;4.23;;